Time;durP1;ratioP1;P1;durP2;ratioP2;P2;SDS_P1;SDS_P2;PMS_P1;PMS_P2;Temp;Humidity;BMP_temperature;BMP_pressure;BME280_temperature;BME280_humidity;BME280_pressure;Samples;Min_cycle;Max_cycle;Signal;HPM_P1;HPM_P2
2023/10/06 00:03:05;;;;;;;23.65;21.02;;;11.80;99.90;;;;;;4920268;28;20134;-76
2023/10/06 00:05:33;;;;;;;22.92;20.75;;;11.70;99.90;;;;;;4932781;28;20049;-76
2023/10/06 00:08:04;;;;;;;22.58;20.33;;;11.70;99.90;;;;;;4937369;28;20085;-76
2023/10/06 00:10:32;;;;;;;25.50;21.33;;;11.70;99.90;;;;;;4935647;28;20058;-76
2023/10/06 00:12:59;;;;;;;21.35;19.40;;;11.50;99.90;;;;;;4907216;28;20066;-76
2023/10/06 00:15:38;;;;;;;22.60;20.27;;;11.50;99.90;;;;;;4922726;28;20515;-76
2023/10/06 00:18:09;;;;;;;22.05;19.80;;;11.60;99.90;;;;;;4909386;28;20107;-76
2023/10/06 00:20:42;;;;;;;22.27;20.25;;;11.50;99.90;;;;;;4919877;28;20053;-76
2023/10/06 00:23:12;;;;;;;23.08;20.65;;;11.40;99.90;;;;;;4938181;28;20774;-77
2023/10/06 00:25:42;;;;;;;23.10;20.77;;;11.30;99.90;;;;;;4920999;28;20673;-76
2023/10/06 00:28:26;;;;;;;24.42;21.88;;;11.30;99.90;;;;;;4934138;28;20106;-77
2023/10/06 00:30:57;;;;;;;23.73;21.52;;;11.20;99.90;;;;;;4918160;28;20146;-76
2023/10/06 00:33:32;;;;;;;25.35;22.27;;;11.30;99.90;;;;;;4920448;28;20107;-76
2023/10/06 00:36:12;;;;;;;24.73;22.10;;;11.20;99.90;;;;;;4938050;28;20062;-76
2023/10/06 00:38:42;;;;;;;23.80;21.35;;;11.10;99.90;;;;;;4922041;28;20127;-77
2023/10/06 00:41:14;;;;;;;24.05;21.55;;;11.10;99.90;;;;;;4934603;28;20146;-77
2023/10/06 00:43:43;;;;;;;23.80;21.77;;;11.00;99.90;;;;;;4925876;28;20047;-77
2023/10/06 00:46:11;;;;;;;24.23;21.60;;;11.00;99.90;;;;;;4923230;28;20061;-77
2023/10/06 00:48:41;;;;;;;27.17;22.25;;;11.00;99.90;;;;;;4922649;28;20150;-76
2023/10/06 00:51:19;;;;;;;23.10;20.75;;;11.00;99.90;;;;;;4938898;28;20050;-77
2023/10/06 00:53:46;;;;;;;26.42;20.83;;;11.10;99.90;;;;;;4922302;28;20044;-77
2023/10/06 00:56:16;;;;;;;23.83;21.48;;;11.00;99.90;;;;;;4924049;28;20410;-77
2023/10/06 00:58:43;;;;;;;24.95;21.50;;;10.90;99.90;;;;;;4922554;28;21685;-78
2023/10/06 01:01:12;;;;;;;26.63;23.52;;;10.80;99.90;;;;;;4938802;28;20075;-78
2023/10/06 01:03:44;;;;;;;26.45;23.17;;;10.70;99.90;;;;;;4938597;28;20647;-77
2023/10/06 01:06:14;;;;;;;23.80;21.38;;;10.80;99.90;;;;;;4920754;28;20082;-76
2023/10/06 01:08:52;;;;;;;23.50;20.75;;;10.80;99.90;;;;;;4941061;28;20043;-78
2023/10/06 01:11:20;;;;;;;22.92;19.67;;;10.80;99.90;;;;;;4927627;28;20043;-77
2023/10/06 01:13:56;;;;;;;21.58;19.63;;;10.90;99.90;;;;;;4943728;28;20741;-77
2023/10/06 01:16:31;;;;;;;26.50;19.27;;;10.90;99.90;;;;;;4930825;28;20051;-79
2023/10/06 01:19:14;;;;;;;;;;;10.90;99.90;;;;;;4952009;28;20051;-76
2023/10/06 01:21:45;;;;;;;19.88;17.63;;;10.90;99.90;;;;;;4953748;28;20005;-76
2023/10/06 01:24:14;;;;;;;20.63;18.25;;;10.90;99.90;;;;;;4940484;28;20675;-77
2023/10/06 01:26:42;;;;;;;27.73;18.52;;;11.00;99.90;;;;;;4954120;28;20231;-77
2023/10/06 01:29:13;;;;;;;22.50;18.88;;;10.90;99.90;;;;;;4950180;28;20609;-76
2023/10/06 01:31:41;;;;;;;21.00;18.98;;;10.90;99.90;;;;;;4941064;28;20039;-77
2023/10/06 01:34:08;;;;;;;21.98;19.75;;;10.80;99.90;;;;;;4943177;28;20047;-77
2023/10/06 01:36:38;;;;;;;21.70;19.55;;;10.80;99.90;;;;;;4939092;28;20064;-77
2023/10/06 01:39:31;;;;;;;22.52;20.17;;;10.80;99.90;;;;;;4941054;28;20159;-76
2023/10/06 01:41:53;;;;;;;23.30;20.77;;;10.80;99.90;;;;;;4939769;28;20065;-77
2023/10/06 01:44:20;;;;;;;23.13;20.77;;;10.70;99.90;;;;;;4923863;28;20055;-77
2023/10/06 01:46:53;;;;;;;25.13;21.38;;;10.70;99.90;;;;;;4923441;28;20059;-77
2023/10/06 01:49:22;;;;;;;23.10;20.40;;;10.70;99.90;;;;;;4921568;28;20656;-77
2023/10/06 01:51:52;;;;;;;23.38;21.33;;;10.70;99.90;;;;;;4936409;28;20051;-77
2023/10/06 01:54:27;;;;;;;23.15;20.73;;;10.70;99.90;;;;;;4926695;28;20135;-77
2023/10/06 01:56:54;;;;;;;22.70;20.52;;;10.70;99.90;;;;;;4942419;28;20051;-76
2023/10/06 01:59:21;;;;;;;23.13;19.45;;;10.80;99.90;;;;;;4940268;28;20047;-78
2023/10/06 02:01:49;;;;;;;24.83;20.17;;;10.80;99.90;;;;;;4940568;28;20043;-78
2023/10/06 02:04:18;;;;;;;24.73;19.35;;;10.80;99.90;;;;;;4924945;28;20051;-77
2023/10/06 02:06:48;;;;;;;20.58;18.83;;;10.80;99.90;;;;;;4928442;28;20059;-77
2023/10/06 02:09:15;;;;;;;23.30;19.85;;;10.90;99.90;;;;;;4940017;28;20043;-77
2023/10/06 02:11:43;;;;;;;22.13;19.80;;;10.80;99.90;;;;;;4937752;28;20059;-77
2023/10/06 02:14:18;;;;;;;23.13;19.67;;;10.80;99.90;;;;;;4922190;28;21048;-77
2023/10/06 02:16:46;;;;;;;21.52;19.42;;;10.80;99.90;;;;;;4933751;28;20057;-77
2023/10/06 02:19:16;;;;;;;23.35;21.13;;;10.80;99.90;;;;;;4916586;29;20047;-77
2023/10/06 02:21:48;;;;;;;23.73;21.08;;;10.70;99.90;;;;;;4921150;28;20398;-77
2023/10/06 02:24:16;;;;;;;24.42;22.10;;;10.60;99.90;;;;;;4936652;28;20055;-77
2023/10/06 02:26:58;;;;;;;24.48;21.40;;;10.50;99.90;;;;;;4936977;28;20153;-78
2023/10/06 02:29:26;;;;;;;27.02;20.20;;;10.50;99.90;;;;;;4937153;28;20058;-76
2023/10/06 02:32:06;;;;;;;28.17;21.55;;;10.50;99.90;;;;;;4920599;28;20094;-78
2023/10/06 02:34:38;;;;;;;24.35;22.13;;;10.40;99.90;;;;;;4918865;28;20086;-77
2023/10/06 02:37:08;;;;;;;25.02;22.05;;;10.30;99.90;;;;;;4922882;28;20462;-77
2023/10/06 02:39:43;;;;;;;22.92;20.70;;;10.30;99.90;;;;;;4925206;28;20054;-77
2023/10/06 02:42:13;;;;;;;22.27;20.20;;;10.20;99.90;;;;;;4934591;28;20047;-76
2023/10/06 02:44:41;;;;;;;24.23;21.63;;;10.00;99.90;;;;;;4935838;28;20146;-77
2023/10/06 02:47:13;;;;;;;24.95;21.95;;;9.90;99.90;;;;;;4908612;28;20048;-78
2023/10/06 02:49:47;;;;;;;25.70;21.45;;;10.00;99.90;;;;;;4936907;28;20063;-78
2023/10/06 02:52:23;;;;;;;29.98;23.23;;;10.00;99.90;;;;;;4938024;28;20567;-77
2023/10/06 02:55:06;;;;;;;25.45;22.25;;;10.00;99.90;;;;;;4920278;28;20138;-76
2023/10/06 02:57:35;;;;;;;23.90;21.23;;;10.10;99.90;;;;;;4933493;28;20047;-76
2023/10/06 03:02:55;;;;;;;24.02;21.63;;;9.90;99.90;;;;;;4934885;28;20134;-77
2023/10/06 03:05:33;;;;;;;23.15;21.15;;;9.80;99.90;;;;;;4911712;28;20059;-76
2023/10/06 03:08:11;;;;;;;25.67;21.83;;;9.80;99.90;;;;;;4920115;28;20418;-77
2023/10/06 03:10:43;;;;;;;26.55;21.88;;;9.70;99.90;;;;;;4931864;28;20073;-76
2023/10/06 03:13:16;;;;;;;29.02;22.75;;;9.80;99.90;;;;;;4921680;28;20050;-76
2023/10/06 03:15:46;;;;;;;24.88;22.33;;;9.70;99.90;;;;;;4904398;28;20071;-77
2023/10/06 03:18:16;;;;;;;28.75;22.50;;;9.70;99.90;;;;;;4917962;29;20131;-76
2023/10/06 03:20:48;;;;;;;25.48;22.83;;;9.60;99.90;;;;;;4917150;28;20146;-76
2023/10/06 03:26:34;;;;;;;25.02;22.38;;;9.70;99.90;;;;;;4924908;28;20146;-76
2023/10/06 03:29:02;;;;;;;29.25;23.42;;;9.80;99.90;;;;;;4937858;28;20043;-76
2023/10/06 03:31:44;;;;;;;26.48;22.23;;;9.80;99.90;;;;;;4918611;28;20043;-75
2023/10/06 03:34:15;;;;;;;27.35;20.83;;;10.00;99.90;;;;;;4937385;28;20055;-76
2023/10/06 03:36:51;;;;;;;22.83;19.70;;;10.10;99.90;;;;;;4922464;28;20057;-76
2023/10/06 03:39:31;;;;;;;23.65;19.70;;;10.10;99.90;;;;;;4932105;28;20745;-77
2023/10/06 03:42:00;;;;;;;21.30;19.13;;;10.20;99.90;;;;;;4932687;28;20626;-75
2023/10/06 03:44:30;;;;;;;29.55;19.73;;;10.30;99.90;;;;;;4905641;28;20075;-76
2023/10/06 03:47:01;;;;;;;22.42;20.05;;;10.30;99.90;;;;;;4920764;28;20534;-76
2023/10/06 03:49:33;;;;;;;24.08;19.13;;;10.30;99.90;;;;;;4928277;28;20059;-76
2023/10/06 03:52:00;;;;;;;23.42;18.02;;;10.40;99.90;;;;;;4930575;28;20118;-76
2023/10/06 03:54:29;;;;;;;25.58;18.92;;;10.40;99.90;;;;;;4918830;28;20094;-76
2023/10/06 03:56:56;;;;;;;20.08;17.85;;;10.40;99.90;;;;;;4931751;28;20086;-77
2023/10/06 03:59:25;;;;;;;25.50;18.50;;;10.40;99.90;;;;;;4918834;29;20052;-76
2023/10/06 04:01:52;;;;;;;24.90;17.83;;;10.50;99.90;;;;;;4901569;28;20117;-76
2023/10/06 04:04:22;;;;;;;20.38;17.63;;;10.50;99.90;;;;;;4922491;29;20058;-79
2023/10/06 04:06:50;;;;;;;28.30;19.15;;;10.50;99.90;;;;;;4934359;28;20623;-75
2023/10/06 04:09:27;;;;;;;22.98;18.25;;;10.50;99.90;;;;;;4898698;29;20057;-76
2023/10/06 04:11:57;;;;;;;24.67;18.33;;;10.60;99.90;;;;;;4917335;28;20055;-76
2023/10/06 04:14:27;;;;;;;24.65;16.30;;;10.60;99.90;;;;;;4922049;28;20039;-76
2023/10/06 04:16:54;;;;;;;23.98;16.15;;;10.60;99.90;;;;;;4918099;28;20562;-76
2023/10/06 04:19:21;;;;;;;23.67;16.30;;;10.70;99.90;;;;;;4922238;29;20055;-77
2023/10/06 04:21:48;;;;;;;30.02;15.93;;;10.70;99.90;;;;;;4912461;28;20578;-75
2023/10/06 04:24:15;;;;;;;16.88;13.55;;;10.70;99.90;;;;;;4934730;28;20051;-76
2023/10/06 04:26:42;;;;;;;24.88;15.95;;;10.80;99.90;;;;;;4916784;28;20058;-76
2023/10/06 04:29:09;;;;;;;20.33;15.05;;;10.80;99.90;;;;;;4933039;28;20043;-76
2023/10/06 04:31:36;;;;;;;20.05;13.43;;;10.90;99.90;;;;;;4916718;28;20044;-76
2023/10/06 04:34:04;;;;;;;19.15;14.25;;;10.90;99.90;;;;;;4918020;28;20562;-76
2023/10/06 04:36:31;;;;;;;23.80;14.82;;;10.90;99.90;;;;;;4906199;28;20055;-76
2023/10/06 04:38:58;;;;;;;26.23;15.98;;;10.90;99.90;;;;;;4917147;28;20058;-75
2023/10/06 04:41:26;;;;;;;22.30;14.98;;;11.00;99.90;;;;;;4922408;29;20047;-76
2023/10/06 04:43:53;;;;;;;26.30;14.25;;;11.00;99.90;;;;;;4915061;28;20051;-75
2023/10/06 04:46:20;;;;;;;21.55;14.93;;;11.00;99.90;;;;;;4922728;29;20043;-76
2023/10/06 04:48:48;;;;;;;16.75;14.32;;;11.10;99.90;;;;;;4919642;28;20743;-76
2023/10/06 04:51:15;;;;;;;18.08;15.82;;;11.10;99.90;;;;;;4902724;29;20199;-76
2023/10/06 04:53:45;;;;;;;22.77;15.35;;;11.10;99.90;;;;;;4916282;28;20768;-76
2023/10/06 04:56:12;;;;;;;22.88;16.73;;;11.10;99.90;;;;;;4935065;28;20057;-79
2023/10/06 04:58:39;;;;;;;19.95;16.58;;;11.00;99.90;;;;;;4934601;28;20607;-76
2023/10/06 05:01:07;;;;;;;18.63;16.05;;;11.00;99.90;;;;;;4929490;28;20101;-76
2023/10/06 05:03:45;;;;;;;20.02;15.70;;;11.00;99.90;;;;;;4917638;28;20065;-78
2023/10/06 05:06:18;;;;;;;23.75;16.33;;;11.00;99.90;;;;;;4933782;28;20603;-76
2023/10/06 05:08:49;;;;;;;18.35;15.43;;;11.10;99.90;;;;;;4931565;28;20577;-76
2023/10/06 05:11:18;;;;;;;24.75;17.25;;;11.10;99.90;;;;;;4933473;28;20057;-76
2023/10/06 05:13:55;;;;;;;22.10;16.85;;;11.00;99.90;;;;;;4912713;28;20039;-75
2023/10/06 05:16:22;;;;;;;23.60;17.35;;;11.00;99.90;;;;;;4918880;29;20442;-77
2023/10/06 05:18:51;;;;;;;22.73;17.92;;;10.90;99.90;;;;;;4928816;28;20138;-78
2023/10/06 05:21:20;;;;;;;19.05;17.15;;;10.90;99.90;;;;;;4920335;29;20047;-76
2023/10/06 05:23:47;;;;;;;25.13;18.00;;;10.90;99.90;;;;;;4928973;28;20055;-76
2023/10/06 05:26:14;;;;;;;23.15;18.13;;;10.90;99.90;;;;;;4934235;28;20082;-77
2023/10/06 05:28:43;;;;;;;19.60;17.63;;;10.80;99.90;;;;;;4913784;28;20051;-75
2023/10/06 05:31:12;;;;;;;24.20;17.88;;;10.80;99.90;;;;;;4930666;28;20051;-78
2023/10/06 05:33:42;;;;;;;29.35;17.27;;;10.80;99.90;;;;;;4929396;28;20156;-76
2023/10/06 05:36:10;;;;;;;21.02;18.80;;;10.70;99.90;;;;;;4933859;28;20707;-76
2023/10/06 05:38:37;;;;;;;26.60;18.33;;;10.70;99.90;;;;;;4932834;28;20349;-76
2023/10/06 05:41:11;;;;;;;22.67;18.20;;;10.70;99.90;;;;;;4913272;28;20110;-76
2023/10/06 05:43:38;;;;;;;20.77;17.23;;;10.60;99.90;;;;;;4919062;28;20071;-76
2023/10/06 05:46:05;;;;;;;20.50;18.25;;;10.60;99.90;;;;;;4932740;28;20092;-77
2023/10/06 05:48:34;;;;;;;22.40;17.13;;;10.60;99.90;;;;;;4933799;28;20056;-77
2023/10/06 05:51:08;;;;;;;21.67;19.13;;;10.60;99.90;;;;;;4913466;28;20186;-76
2023/10/06 05:53:43;;;;;;;24.02;19.42;;;10.60;99.90;;;;;;4918995;28;20051;-76
2023/10/06 05:56:11;;;;;;;24.05;18.77;;;10.50;99.90;;;;;;4935400;28;20110;-76
2023/10/06 05:58:43;;;;;;;21.65;19.65;;;10.50;99.90;;;;;;4934575;28;20051;-77
2023/10/06 06:01:20;;;;;;;28.38;20.13;;;10.60;99.90;;;;;;4921101;28;20047;-76
2023/10/06 06:03:49;;;;;;;28.20;18.95;;;10.60;99.90;;;;;;4920842;28;20120;-76
2023/10/06 06:06:22;;;;;;;25.20;19.75;;;10.60;99.90;;;;;;4921385;28;20046;-77
2023/10/06 06:08:55;;;;;;;23.08;20.73;;;10.60;99.90;;;;;;4916661;28;20055;-76
2023/10/06 06:11:22;;;;;;;29.10;22.17;;;10.60;99.90;;;;;;4919224;29;20248;-77
2023/10/06 06:13:49;;;;;;;25.63;21.70;;;10.60;99.90;;;;;;4919442;28;20047;-77
2023/10/06 06:16:32;;;;;;;24.35;21.70;;;10.70;99.90;;;;;;4926143;28;20039;-77
2023/10/06 06:18:59;;;;;;;24.15;21.70;;;10.70;99.90;;;;;;4918100;28;21478;-77
2023/10/06 06:21:26;;;;;;;28.83;22.17;;;10.70;99.90;;;;;;4938283;28;20047;-77
2023/10/06 06:23:55;;;;;;;26.08;21.27;;;10.70;99.90;;;;;;4920715;28;20054;-78
2023/10/06 06:26:24;;;;;;;23.85;21.42;;;10.70;99.90;;;;;;4922630;29;20079;-76
2023/10/06 06:28:54;;;;;;;33.05;21.10;;;10.70;99.90;;;;;;4918462;28;20078;-77
2023/10/06 06:31:21;;;;;;;25.25;19.08;;;10.80;99.90;;;;;;4920302;29;20119;-77
2023/10/06 06:33:55;;;;;;;25.27;18.27;;;10.90;99.90;;;;;;4924460;28;20074;-77
2023/10/06 06:36:22;;;;;;;25.05;18.05;;;11.00;99.90;;;;;;4937716;29;20111;-77
2023/10/06 06:38:49;;;;;;;23.17;17.63;;;11.10;99.90;;;;;;4931148;28;20069;-76
2023/10/06 06:41:16;;;;;;;18.30;16.33;;;11.10;99.90;;;;;;4927763;28;20063;-77
2023/10/06 06:43:45;;;;;;;20.33;16.27;;;11.30;99.90;;;;;;4930519;28;20052;-77
2023/10/06 06:46:13;;;;;;;24.25;15.95;;;11.40;99.90;;;;;;4958798;28;20062;-77
2023/10/06 06:48:43;;;;;;;19.10;17.00;;;11.50;99.90;;;;;;4950968;28;20057;-78
2023/10/06 06:51:11;;;;;;;18.38;16.42;;;11.50;99.90;;;;;;4961217;28;20035;-77
2023/10/06 06:53:39;;;;;;;23.58;18.75;;;11.60;99.90;;;;;;4961410;28;20081;-77
2023/10/06 06:56:06;;;;;;;21.27;17.70;;;11.70;99.90;;;;;;4942830;28;20047;-77
2023/10/06 06:58:33;;;;;;;22.58;17.95;;;11.80;99.90;;;;;;4946694;28;20046;-77
2023/10/06 07:01:04;;;;;;;18.90;17.10;;;11.80;99.90;;;;;;4959939;28;20051;-77
2023/10/06 07:03:32;;;;;;;23.02;17.85;;;11.90;99.90;;;;;;4948525;28;20084;-78
2023/10/06 07:06:00;;;;;;;18.42;16.55;;;12.00;99.90;;;;;;4958659;28;20058;-77
2023/10/06 07:08:27;;;;;;;20.85;16.67;;;12.20;99.90;;;;;;4964215;28;20054;-78
2023/10/06 07:10:55;;;;;;;19.45;17.20;;;12.30;99.90;;;;;;4931324;28;20054;-78
2023/10/06 07:13:24;;;;;;;21.40;16.92;;;12.50;99.90;;;;;;4947342;28;20055;-79
2023/10/06 07:15:53;;;;;;;18.90;17.02;;;12.70;99.90;;;;;;4947704;28;20039;-79
2023/10/06 07:18:22;;;;;;;19.67;17.73;;;12.80;99.90;;;;;;4969538;28;20179;-79
2023/10/06 07:20:49;;;;;;;20.52;18.63;;;12.90;99.90;;;;;;4962245;28;20058;-78
2023/10/06 07:23:16;;;;;;;20.50;18.73;;;13.00;99.90;;;;;;4966964;28;20059;-78
2023/10/06 07:25:42;;;;;;;21.60;19.80;;;13.10;99.90;;;;;;4964930;28;20098;-79
2023/10/06 07:28:12;;;;;;;21.25;19.02;;;13.20;99.90;;;;;;4961902;28;20047;-78
2023/10/06 07:30:39;;;;;;;22.48;20.15;;;13.30;99.90;;;;;;4965281;28;20171;-78
2023/10/06 07:33:09;;;;;;;22.63;20.52;;;13.30;99.90;;;;;;4926429;28;20043;-79
2023/10/06 07:35:51;;;;;;;21.08;19.27;;;13.40;99.90;;;;;;4940768;28;20506;-78
2023/10/06 07:38:18;;;;;;;21.27;19.50;;;13.40;99.90;;;;;;4919724;28;20056;-78
2023/10/06 07:40:45;;;;;;;21.08;19.40;;;13.40;99.90;;;;;;4934098;28;20083;-79
2023/10/06 07:43:17;;;;;;;20.80;19.15;;;13.40;99.90;;;;;;4938346;28;20047;-79
2023/10/06 07:45:46;;;;;;;22.15;19.88;;;13.50;99.90;;;;;;4922675;29;20048;-78
2023/10/06 07:48:14;;;;;;;21.65;19.75;;;13.60;99.90;;;;;;4903220;28;20063;-79
2023/10/06 07:50:41;;;;;;;21.00;19.33;;;13.70;99.90;;;;;;4941899;28;20057;-79
2023/10/06 07:53:09;;;;;;;22.13;20.27;;;13.90;99.90;;;;;;4937396;28;20458;-78
2023/10/06 07:55:36;;;;;;;22.30;20.42;;;14.00;99.90;;;;;;4923258;29;20049;-79
2023/10/06 07:58:08;;;;;;;22.95;20.92;;;14.20;99.90;;;;;;4921733;28;20083;-79
2023/10/06 08:00:44;;;;;;;21.67;20.02;;;14.30;99.90;;;;;;4923171;29;20043;-78
2023/10/06 08:03:11;;;;;;;22.63;20.50;;;14.40;99.90;;;;;;4938372;28;20067;-79
2023/10/06 08:05:40;;;;;;;22.73;20.65;;;14.50;99.90;;;;;;4937935;28;20043;-79
2023/10/06 08:08:07;;;;;;;22.17;19.88;;;14.60;99.90;;;;;;4922280;28;20058;-79
2023/10/06 08:10:34;;;;;;;23.17;21.13;;;14.60;99.90;;;;;;4923730;29;20061;-79
2023/10/06 08:13:01;;;;;;;23.15;20.80;;;14.70;99.90;;;;;;4920887;28;20129;-79
2023/10/06 08:15:32;;;;;;;21.90;20.15;;;14.80;99.90;;;;;;4936558;28;20039;-79
2023/10/06 08:18:00;;;;;;;23.20;21.08;;;14.80;99.90;;;;;;4922568;28;20070;-79
2023/10/06 08:20:27;;;;;;;22.70;20.88;;;14.90;99.90;;;;;;4925228;29;20039;-78
2023/10/06 08:22:56;;;;;;;24.15;20.58;;;14.90;99.90;;;;;;4934533;28;20062;-78
2023/10/06 08:25:24;;;;;;;22.42;20.73;;;14.90;99.90;;;;;;4937454;28;20055;-78
2023/10/06 08:27:53;;;;;;;21.60;19.80;;;15.00;99.90;;;;;;4923523;28;20122;-77
2023/10/06 08:30:20;;;;;;;22.77;20.75;;;15.00;99.90;;;;;;4916683;29;20051;-78
2023/10/06 08:32:52;;;;;;;21.85;20.13;;;15.10;99.90;;;;;;4923592;28;20050;-78
2023/10/06 08:35:26;;;;;;;21.38;19.98;;;15.30;99.90;;;;;;4936643;28;20130;-78
2023/10/06 08:37:54;;;;;;;23.35;21.25;;;15.50;99.90;;;;;;4923511;28;20071;-78
2023/10/06 08:40:22;;;;;;;22.17;20.33;;;15.40;99.90;;;;;;4920612;29;20573;-78
2023/10/06 08:42:52;;;;;;;22.33;20.70;;;15.20;99.90;;;;;;4906540;28;20449;-78
2023/10/06 08:45:21;;;;;;;22.50;20.70;;;15.20;99.90;;;;;;4939033;28;20059;-78
2023/10/06 08:47:49;;;;;;;21.85;20.02;;;15.30;99.90;;;;;;4939316;28;20036;-78
2023/10/06 08:50:29;;;;;;;22.27;20.27;;;15.50;99.90;;;;;;4940817;28;20048;-77
2023/10/06 08:52:57;;;;;;;22.33;20.55;;;15.70;99.90;;;;;;4936072;28;20046;-79
2023/10/06 08:55:27;;;;;;;22.73;20.60;;;15.80;99.90;;;;;;4927030;29;20079;-76
2023/10/06 08:57:55;;;;;;;22.50;20.77;;;15.80;99.90;;;;;;4934483;28;20043;-78
2023/10/06 09:00:32;;;;;;;23.33;21.23;;;15.80;99.90;;;;;;4918960;28;20043;-77
2023/10/06 09:03:08;;;;;;;22.15;20.65;;;16.00;99.90;;;;;;4940684;28;20164;-77
2023/10/06 09:05:43;;;;;;;22.13;20.52;;;16.00;99.90;;;;;;4937016;28;20118;-78
2023/10/06 09:08:14;;;;;;;24.70;22.50;;;16.10;99.90;;;;;;4922074;28;20035;-78
2023/10/06 09:10:48;;;;;;;22.85;21.23;;;16.00;99.90;;;;;;4942842;28;20058;-77
2023/10/06 09:13:21;;;;;;;22.90;21.13;;;15.90;99.90;;;;;;4924276;28;20046;-78
2023/10/06 09:16:16;;;;;;;23.08;21.33;;;15.80;99.90;;;;;;4942333;28;20462;-77
2023/10/06 09:19:07;;;;;;;22.20;20.38;;;16.10;99.90;;;;;;4923386;29;20132;-77
2023/10/06 09:21:36;;;;;;;23.60;21.90;;;16.20;99.90;;;;;;4950724;28;20036;-77
2023/10/06 09:24:19;;;;;;;23.73;21.90;;;16.30;99.90;;;;;;4949051;28;20054;-77
2023/10/06 09:26:46;;;;;;;22.38;20.88;;;16.50;99.90;;;;;;4936116;29;20043;-78
2023/10/06 09:29:14;;;;;;;24.42;22.08;;;16.60;99.90;;;;;;4948126;28;20085;-78
2023/10/06 09:31:44;;;;;;;23.17;21.30;;;16.70;99.90;;;;;;4937296;29;20049;-78
2023/10/06 09:34:27;;;;;;;23.00;21.10;;;16.80;99.90;;;;;;4926446;28;20285;-77
2023/10/06 09:36:54;;;;;;;23.92;22.20;;;16.80;99.90;;;;;;4946359;28;20063;-79
2023/10/06 09:39:29;;;;;;;23.83;21.58;;;16.80;99.90;;;;;;4948690;28;20078;-78
2023/10/06 09:42:01;;;;;;;23.23;21.50;;;16.80;99.90;;;;;;4943561;28;20039;-77
2023/10/06 09:44:30;;;;;;;24.17;22.20;;;16.90;99.90;;;;;;4956938;28;20097;-78
2023/10/06 09:47:00;;;;;;;23.58;21.90;;;16.90;99.90;;;;;;4956366;28;20051;-79
2023/10/06 09:49:30;;;;;;;23.08;21.40;;;16.90;99.90;;;;;;4943336;29;20095;-79
2023/10/06 09:52:01;;;;;;;23.95;22.05;;;16.90;99.90;;;;;;4944460;28;20066;-78
2023/10/06 09:54:30;;;;;;;23.95;22.02;;;17.00;99.90;;;;;;4932084;29;20043;-78
2023/10/06 09:56:59;;;;;;;24.42;22.50;;;17.10;99.90;;;;;;4941284;28;20055;-79
2023/10/06 09:59:27;;;;;;;24.50;22.60;;;17.00;99.90;;;;;;4930869;28;20087;-79
2023/10/06 10:01:54;;;;;;;24.23;22.23;;;17.20;99.90;;;;;;4931215;28;20039;-78
2023/10/06 10:04:25;;;;;;;24.02;22.20;;;17.40;99.90;;;;;;4906566;28;20134;-79
2023/10/06 10:06:53;;;;;;;23.98;22.08;;;17.50;99.90;;;;;;4940052;28;20051;-79
2023/10/06 10:09:22;;;;;;;24.92;22.45;;;17.60;99.90;;;;;;4935935;28;20039;-79
2023/10/06 10:12:16;;;;;;;23.00;21.40;;;17.60;99.90;;;;;;4907685;28;20146;-79
2023/10/06 10:14:59;;;;;;;23.45;21.85;;;17.30;99.90;;;;;;4922289;29;20127;-79
2023/10/06 10:17:37;;;;;;;23.52;21.88;;;17.00;99.90;;;;;;4906446;28;20106;-79
2023/10/06 10:20:09;;;;;;;24.73;22.83;;;17.10;99.90;;;;;;4917776;28;20317;-78
2023/10/06 10:22:38;;;;;;;24.27;22.25;;;17.40;99.90;;;;;;4935974;28;20510;-79
2023/10/06 10:25:07;;;;;;;24.55;22.35;;;17.50;99.90;;;;;;4920096;28;20059;-79
2023/10/06 10:28:17;;;;;;;25.13;23.23;;;17.60;99.90;;;;;;4939966;28;20102;-79
2023/10/06 10:30:57;;;;;;;24.80;22.80;;;17.70;99.90;;;;;;4920914;29;20325;-78
2023/10/06 10:33:29;;;;;;;24.52;22.60;;;17.80;99.90;;;;;;4918307;28;20047;-79
2023/10/06 10:36:18;;;;;;;25.25;22.77;;;17.90;99.90;;;;;;4936287;28;20059;-79
2023/10/06 10:38:57;;;;;;;24.58;22.60;;;17.90;99.90;;;;;;4907117;28;20043;-78
2023/10/06 10:41:27;;;;;;;25.50;23.30;;;17.70;99.90;;;;;;4917901;28;20054;-78
2023/10/06 10:43:56;;;;;;;24.17;22.40;;;17.50;99.90;;;;;;4940251;28;20039;-79
2023/10/06 10:46:48;;;;;;;25.55;23.30;;;17.40;99.90;;;;;;4937066;28;20047;-78
2023/10/06 10:49:19;;;;;;;23.77;21.98;;;17.20;99.90;;;;;;4915812;28;20055;-78
2023/10/06 10:51:49;;;;;;;25.30;23.30;;;17.20;99.90;;;;;;4920465;29;20040;-77
2023/10/06 10:54:26;;;;;;;25.02;23.17;;;17.40;99.90;;;;;;4915676;28;20672;-77
2023/10/06 10:57:01;;;;;;;24.58;22.77;;;17.60;99.90;;;;;;4940086;28;20046;-77
2023/10/06 11:00:12;;;;;;;24.10;22.35;;;17.60;99.90;;;;;;4922998;28;20043;-77
2023/10/06 11:03:00;;;;;;;24.33;22.63;;;17.40;99.90;;;;;;4939256;28;20044;-76
2023/10/06 11:05:33;;;;;;;25.02;22.92;;;17.50;99.90;;;;;;4910403;28;20053;-75
2023/10/06 11:12:42;;;;;;;25.25;23.30;;;17.40;99.90;;;;;;4912862;28;20090;-74
2023/10/06 11:15:48;;;;;;;24.35;22.63;;;17.20;99.90;;;;;;4927245;28;20044;-75
2023/10/06 11:18:17;;;;;;;24.63;22.70;;;17.20;99.90;;;;;;4916367;28;20475;-74
2023/10/06 11:20:47;;;;;;;25.63;23.33;;;17.20;99.90;;;;;;4929398;28;20045;-73
2023/10/06 11:23:15;;;;;;;25.48;23.70;;;17.10;99.90;;;;;;4933298;28;20688;-76
2023/10/06 11:25:49;;;;;;;24.85;22.85;;;17.00;99.90;;;;;;4905748;29;20043;-76
2023/10/06 11:28:19;;;;;;;23.00;21.02;;;17.00;99.90;;;;;;4917877;28;20059;-77
2023/10/06 11:30:46;;;;;;;23.00;21.10;;;17.20;99.90;;;;;;4918513;28;20147;-79
2023/10/06 11:33:13;;;;;;;21.77;20.17;;;17.50;99.90;;;;;;4935662;28;20055;-76
2023/10/06 11:35:41;;;;;;;22.17;20.33;;;17.90;99.90;;;;;;4938560;28;20586;-77
2023/10/06 11:38:13;;;;;;;23.08;21.23;;;18.10;99.90;;;;;;4921539;28;20142;-76
2023/10/06 11:40:40;;;;;;;22.02;20.20;;;18.50;99.90;;;;;;4917909;29;20052;-77
2023/10/06 11:43:17;;;;;;;22.58;20.67;;;18.50;99.90;;;;;;4922189;28;20046;-77
2023/10/06 11:45:44;;;;;;;22.70;21.02;;;18.70;99.90;;;;;;4935145;28;20051;-76
2023/10/06 11:48:25;;;;;;;22.67;21.13;;;18.70;99.90;;;;;;4937919;28;20074;-77
2023/10/06 11:51:00;;;;;;;23.15;21.15;;;18.70;99.90;;;;;;4936583;28;20047;-76
2023/10/06 11:53:27;;;;;;;23.77;21.80;;;18.60;99.90;;;;;;4936894;28;20043;-80
2023/10/06 11:56:10;;;;;;;23.75;21.95;;;18.50;99.90;;;;;;4940899;28;20062;-78
2023/10/06 11:58:41;;;;;;;24.08;22.27;;;18.60;99.90;;;;;;4938031;28;20059;-75
2023/10/06 12:01:32;;;;;;;24.30;22.35;;;18.60;99.90;;;;;;4916941;28;20039;-76
2023/10/06 12:04:01;;;;;;;25.38;23.42;;;18.60;99.90;;;;;;4936181;28;20560;-76
2023/10/06 12:06:39;;;;;;;23.95;22.20;;;18.40;99.90;;;;;;4936077;28;20047;-77
2023/10/06 12:09:08;;;;;;;24.65;22.15;;;18.40;99.90;;;;;;4921695;28;20072;-76
2023/10/06 12:11:35;;;;;;;25.50;23.23;;;18.60;99.90;;;;;;4930690;28;20051;-76
2023/10/06 12:14:03;;;;;;;24.88;22.92;;;18.70;99.90;;;;;;4920895;28;20134;-74
2023/10/06 12:16:30;;;;;;;24.30;22.33;;;18.70;99.90;;;;;;4937186;28;20417;-75
2023/10/06 12:18:58;;;;;;;25.63;23.35;;;18.60;99.90;;;;;;4918351;28;20097;-74
2023/10/06 12:21:25;;;;;;;25.05;22.92;;;18.80;99.90;;;;;;4912856;28;20855;-75
2023/10/06 12:23:52;;;;;;;25.55;23.02;;;18.90;99.90;;;;;;4937040;28;20107;-75
2023/10/06 12:26:19;;;;;;;24.50;22.33;;;18.90;99.90;;;;;;4932700;28;20139;-75
2023/10/06 12:28:48;;;;;;;25.92;23.92;;;18.80;99.90;;;;;;4920363;29;20134;-75
2023/10/06 12:31:40;;;;;;;23.65;22.05;;;18.60;99.90;;;;;;4916491;28;20062;-74
2023/10/06 12:34:07;;;;;;;25.55;23.63;;;18.60;99.90;;;;;;4918400;28;20051;-75
2023/10/06 12:36:35;;;;;;;24.73;22.80;;;18.50;99.90;;;;;;4923661;28;20143;-75
2023/10/06 12:39:05;;;;;;;24.27;22.15;;;18.60;99.90;;;;;;4904646;28;20050;-74
2023/10/06 12:41:32;;;;;;;24.90;23.08;;;18.70;99.90;;;;;;4900741;28;20043;-74
2023/10/06 12:44:04;;;;;;;24.77;22.65;;;18.60;99.90;;;;;;4936688;28;20047;-77
2023/10/06 12:46:33;;;;;;;24.98;23.05;;;18.60;99.90;;;;;;4932224;28;20051;-75
2023/10/06 12:49:05;;;;;;;25.25;23.08;;;18.70;99.90;;;;;;4921340;28;20053;-75
2023/10/06 12:51:35;;;;;;;26.20;24.30;;;18.50;99.90;;;;;;4934161;28;20122;-77
2023/10/06 12:54:03;;;;;;;26.75;24.73;;;18.50;99.90;;;;;;4922753;28;20148;-76
2023/10/06 12:56:31;;;;;;;25.58;23.88;;;18.40;99.90;;;;;;4935771;28;20458;-75
2023/10/06 12:59:09;;;;;;;25.73;23.80;;;18.40;99.90;;;;;;4925370;28;20650;-77
2023/10/06 13:01:36;;;;;;;26.60;24.63;;;18.40;99.90;;;;;;4937382;28;20043;-74